sensor_id;sensor_type;location;lat;lon;timestamp;temperature;humidity
36856;DHT22;22788;51.434;6.786;2023-07-31T00:02:21;18.80;99.90
36856;DHT22;22788;51.434;6.786;2023-07-31T00:04:46;18.70;99.90
36856;DHT22;22788;51.434;6.786;2023-07-31T00:07:12;18.80;99.90
36856;DHT22;22788;51.434;6.786;2023-07-31T00:09:39;18.80;99.90
36856;DHT22;22788;51.434;6.786;2023-07-31T00:12:05;18.80;99.90
36856;DHT22;22788;51.434;6.786;2023-07-31T00:14:31;18.80;99.90
36856;DHT22;22788;51.434;6.786;2023-07-31T00:16:57;18.70;99.90
36856;DHT22;22788;51.434;6.786;2023-07-31T00:19:22;18.80;99.90
36856;DHT22;22788;51.434;6.786;2023-07-31T00:21:48;18.70;99.90
36856;DHT22;22788;51.434;6.786;2023-07-31T00:24:13;18.80;99.90
36856;DHT22;22788;51.434;6.786;2023-07-31T00:26:40;18.80;99.90
36856;DHT22;22788;51.434;6.786;2023-07-31T00:29:06;18.90;99.90
36856;DHT22;22788;51.434;6.786;2023-07-31T00:31:32;18.80;99.90
36856;DHT22;22788;51.434;6.786;2023-07-31T00:33:57;18.80;99.90
36856;DHT22;22788;51.434;6.786;2023-07-31T00:36:23;18.70;99.90
36856;DHT22;22788;51.434;6.786;2023-07-31T00:38:48;18.70;99.90
36856;DHT22;22788;51.434;6.786;2023-07-31T00:41:14;18.70;99.90
36856;DHT22;22788;51.434;6.786;2023-07-31T00:43:41;18.70;99.90
36856;DHT22;22788;51.434;6.786;2023-07-31T00:46:07;18.70;99.90
36856;DHT22;22788;51.434;6.786;2023-07-31T00:48:33;18.70;99.90
36856;DHT22;22788;51.434;6.786;2023-07-31T00:50:59;18.70;99.90
36856;DHT22;22788;51.434;6.786;2023-07-31T00:53:24;18.70;99.90
36856;DHT22;22788;51.434;6.786;2023-07-31T00:55:51;18.70;99.90
36856;DHT22;22788;51.434;6.786;2023-07-31T00:58:17;18.70;99.90
36856;DHT22;22788;51.434;6.786;2023-07-31T01:00:44;18.70;99.90
36856;DHT22;22788;51.434;6.786;2023-07-31T01:03:10;18.80;99.90
36856;DHT22;22788;51.434;6.786;2023-07-31T01:05:42;18.80;99.90
36856;DHT22;22788;51.434;6.786;2023-07-31T01:08:15;18.80;99.90
36856;DHT22;22788;51.434;6.786;2023-07-31T01:10:46;18.70;99.90
36856;DHT22;22788;51.434;6.786;2023-07-31T01:13:15;18.70;99.90
36856;DHT22;22788;51.434;6.786;2023-07-31T01:15:40;18.70;99.90
36856;DHT22;22788;51.434;6.786;2023-07-31T01:18:07;18.70;99.90
36856;DHT22;22788;51.434;6.786;2023-07-31T01:20:33;18.80;99.90
36856;DHT22;22788;51.434;6.786;2023-07-31T01:23:13;18.80;99.90
36856;DHT22;22788;51.434;6.786;2023-07-31T01:25:56;18.80;99.90
36856;DHT22;22788;51.434;6.786;2023-07-31T01:28:29;18.70;99.90
36856;DHT22;22788;51.434;6.786;2023-07-31T01:30:58;18.70;99.90
36856;DHT22;22788;51.434;6.786;2023-07-31T01:33:25;18.70;99.90
36856;DHT22;22788;51.434;6.786;2023-07-31T01:35:52;18.70;99.90
36856;DHT22;22788;51.434;6.786;2023-07-31T01:38:20;18.70;99.90
36856;DHT22;22788;51.434;6.786;2023-07-31T01:40:51;18.70;99.90
36856;DHT22;22788;51.434;6.786;2023-07-31T01:43:17;18.70;99.90
36856;DHT22;22788;51.434;6.786;2023-07-31T01:45:43;18.70;99.90
36856;DHT22;22788;51.434;6.786;2023-07-31T01:48:09;18.70;99.90
36856;DHT22;22788;51.434;6.786;2023-07-31T01:50:34;18.60;99.90
36856;DHT22;22788;51.434;6.786;2023-07-31T01:53:00;18.70;99.90
36856;DHT22;22788;51.434;6.786;2023-07-31T01:55:26;18.60;99.90
36856;DHT22;22788;51.434;6.786;2023-07-31T01:57:51;18.60;99.90
36856;DHT22;22788;51.434;6.786;2023-07-31T02:00:19;18.60;99.90
36856;DHT22;22788;51.434;6.786;2023-07-31T02:02:44;18.70;99.90
36856;DHT22;22788;51.434;6.786;2023-07-31T02:05:10;18.60;99.90
36856;DHT22;22788;51.434;6.786;2023-07-31T02:07:35;18.70;99.90
36856;DHT22;22788;51.434;6.786;2023-07-31T02:10:01;18.70;99.90
36856;DHT22;22788;51.434;6.786;2023-07-31T02:12:27;18.70;99.90
36856;DHT22;22788;51.434;6.786;2023-07-31T02:14:52;18.70;99.90
36856;DHT22;22788;51.434;6.786;2023-07-31T02:17:19;18.70;99.90
36856;DHT22;22788;51.434;6.786;2023-07-31T02:19:45;18.70;99.90
36856;DHT22;22788;51.434;6.786;2023-07-31T02:22:10;18.70;99.90
36856;DHT22;22788;51.434;6.786;2023-07-31T02:24:36;18.70;99.90
36856;DHT22;22788;51.434;6.786;2023-07-31T02:27:02;18.70;99.90
36856;DHT22;22788;51.434;6.786;2023-07-31T02:29:28;18.60;99.90
36856;DHT22;22788;51.434;6.786;2023-07-31T02:31:53;18.60;99.90
36856;DHT22;22788;51.434;6.786;2023-07-31T02:34:20;18.60;99.90
36856;DHT22;22788;51.434;6.786;2023-07-31T02:36:46;18.60;99.90
36856;DHT22;22788;51.434;6.786;2023-07-31T02:39:14;18.50;99.90
36856;DHT22;22788;51.434;6.786;2023-07-31T02:41:41;18.60;99.90
36856;DHT22;22788;51.434;6.786;2023-07-31T02:44:08;18.60;99.90
36856;DHT22;22788;51.434;6.786;2023-07-31T02:46:35;18.50;99.90
36856;DHT22;22788;51.434;6.786;2023-07-31T02:49:02;18.60;99.90
36856;DHT22;22788;51.434;6.786;2023-07-31T02:51:32;18.60;99.90
36856;DHT22;22788;51.434;6.786;2023-07-31T02:54:00;18.60;99.90
36856;DHT22;22788;51.434;6.786;2023-07-31T02:56:28;18.60;99.90
36856;DHT22;22788;51.434;6.786;2023-07-31T02:58:55;18.60;99.90
36856;DHT22;22788;51.434;6.786;2023-07-31T03:01:22;18.60;99.90
36856;DHT22;22788;51.434;6.786;2023-07-31T03:03:50;18.60;99.90
36856;DHT22;22788;51.434;6.786;2023-07-31T03:06:17;18.60;99.90
36856;DHT22;22788;51.434;6.786;2023-07-31T03:08:46;18.60;99.90
36856;DHT22;22788;51.434;6.786;2023-07-31T03:11:13;18.50;99.90
36856;DHT22;22788;51.434;6.786;2023-07-31T03:13:41;18.50;99.90
36856;DHT22;22788;51.434;6.786;2023-07-31T03:16:09;18.50;99.90
36856;DHT22;22788;51.434;6.786;2023-07-31T03:18:36;18.60;99.90
36856;DHT22;22788;51.434;6.786;2023-07-31T03:21:04;18.60;99.90
36856;DHT22;22788;51.434;6.786;2023-07-31T03:23:32;18.60;99.90
36856;DHT22;22788;51.434;6.786;2023-07-31T03:26:01;18.60;99.90
36856;DHT22;22788;51.434;6.786;2023-07-31T03:28:30;18.60;99.90
36856;DHT22;22788;51.434;6.786;2023-07-31T03:30:57;18.50;99.90
36856;DHT22;22788;51.434;6.786;2023-07-31T03:33:25;18.70;99.90
36856;DHT22;22788;51.434;6.786;2023-07-31T03:35:52;18.50;99.90
36856;DHT22;22788;51.434;6.786;2023-07-31T03:38:18;18.60;99.90
36856;DHT22;22788;51.434;6.786;2023-07-31T03:40:46;18.60;99.90
36856;DHT22;22788;51.434;6.786;2023-07-31T03:43:14;18.60;99.90
36856;DHT22;22788;51.434;6.786;2023-07-31T03:45:41;18.50;99.90
36856;DHT22;22788;51.434;6.786;2023-07-31T03:48:09;18.50;99.90
36856;DHT22;22788;51.434;6.786;2023-07-31T03:50:35;18.50;99.90
36856;DHT22;22788;51.434;6.786;2023-07-31T03:53:00;18.50;99.90
36856;DHT22;22788;51.434;6.786;2023-07-31T03:55:26;18.50;99.90
36856;DHT22;22788;51.434;6.786;2023-07-31T03:57:52;18.60;99.90
36856;DHT22;22788;51.434;6.786;2023-07-31T04:00:19;18.60;99.90
36856;DHT22;22788;51.434;6.786;2023-07-31T04:02:44;18.50;99.90
36856;DHT22;22788;51.434;6.786;2023-07-31T04:05:10;18.50;99.90
36856;DHT22;22788;51.434;6.786;2023-07-31T04:07:36;18.60;99.90
36856;DHT22;22788;51.434;6.786;2023-07-31T04:10:02;18.50;99.90
36856;DHT22;22788;51.434;6.786;2023-07-31T04:12:28;18.60;99.90
36856;DHT22;22788;51.434;6.786;2023-07-31T04:14:54;18.60;99.90
36856;DHT22;22788;51.434;6.786;2023-07-31T04:17:21;18.60;99.90
36856;DHT22;22788;51.434;6.786;2023-07-31T04:19:46;18.50;99.90
36856;DHT22;22788;51.434;6.786;2023-07-31T04:22:12;18.60;99.90
36856;DHT22;22788;51.434;6.786;2023-07-31T04:24:38;18.60;99.90
36856;DHT22;22788;51.434;6.786;2023-07-31T04:27:03;18.60;99.90
36856;DHT22;22788;51.434;6.786;2023-07-31T04:29:29;18.50;99.90
36856;DHT22;22788;51.434;6.786;2023-07-31T04:31:55;18.50;99.90
36856;DHT22;22788;51.434;6.786;2023-07-31T04:34:22;18.50;99.90
36856;DHT22;22788;51.434;6.786;2023-07-31T04:36:47;18.50;99.90
36856;DHT22;22788;51.434;6.786;2023-07-31T04:39:13;18.50;99.90
36856;DHT22;22788;51.434;6.786;2023-07-31T04:41:38;18.50;99.90
36856;DHT22;22788;51.434;6.786;2023-07-31T04:44:04;18.60;99.90
36856;DHT22;22788;51.434;6.786;2023-07-31T04:46:30;18.50;99.90
36856;DHT22;22788;51.434;6.786;2023-07-31T04:48:56;18.70;99.90
36856;DHT22;22788;51.434;6.786;2023-07-31T04:51:23;18.50;99.90
36856;DHT22;22788;51.434;6.786;2023-07-31T04:53:48;18.50;99.90
36856;DHT22;22788;51.434;6.786;2023-07-31T04:56:14;18.50;99.90
36856;DHT22;22788;51.434;6.786;2023-07-31T04:58:40;18.50;99.90
36856;DHT22;22788;51.434;6.786;2023-07-31T05:01:05;18.50;99.90
36856;DHT22;22788;51.434;6.786;2023-07-31T05:03:31;18.50;99.90
36856;DHT22;22788;51.434;6.786;2023-07-31T05:05:57;18.60;99.90
36856;DHT22;22788;51.434;6.786;2023-07-31T05:08:24;18.60;99.90
36856;DHT22;22788;51.434;6.786;2023-07-31T05:10:50;18.60;99.90
36856;DHT22;22788;51.434;6.786;2023-07-31T05:13:15;18.60;99.90
36856;DHT22;22788;51.434;6.786;2023-07-31T05:15:41;18.60;99.90
36856;DHT22;22788;51.434;6.786;2023-07-31T05:18:07;18.60;99.90
36856;DHT22;22788;51.434;6.786;2023-07-31T05:20:32;18.60;99.90
36856;DHT22;22788;51.434;6.786;2023-07-31T05:22:58;18.60;99.90
36856;DHT22;22788;51.434;6.786;2023-07-31T05:25:25;18.60;99.90
36856;DHT22;22788;51.434;6.786;2023-07-31T05:27:51;18.60;99.90
36856;DHT22;22788;51.434;6.786;2023-07-31T05:30:16;18.60;99.90
36856;DHT22;22788;51.434;6.786;2023-07-31T05:32:42;18.60;99.90
36856;DHT22;22788;51.434;6.786;2023-07-31T05:35:08;18.60;99.90
36856;DHT22;22788;51.434;6.786;2023-07-31T05:37:34;18.60;99.90
36856;DHT22;22788;51.434;6.786;2023-07-31T05:39:59;18.60;99.90
36856;DHT22;22788;51.434;6.786;2023-07-31T05:42:26;18.60;99.90
36856;DHT22;22788;51.434;6.786;2023-07-31T05:44:52;18.60;99.90
36856;DHT22;22788;51.434;6.786;2023-07-31T05:47:17;18.50;99.90
36856;DHT22;22788;51.434;6.786;2023-07-31T05:49:43;18.50;99.90
36856;DHT22;22788;51.434;6.786;2023-07-31T05:52:09;18.50;99.90
36856;DHT22;22788;51.434;6.786;2023-07-31T05:54:35;18.50;99.90
36856;DHT22;22788;51.434;6.786;2023-07-31T05:57:00;18.50;99.90
36856;DHT22;22788;51.434;6.786;2023-07-31T05:59:27;18.50;99.90
36856;DHT22;22788;51.434;6.786;2023-07-31T06:01:53;18.60;99.90
36856;DHT22;22788;51.434;6.786;2023-07-31T06:04:18;18.50;99.90
36856;DHT22;22788;51.434;6.786;2023-07-31T06:06:44;18.50;99.90
36856;DHT22;22788;51.434;6.786;2023-07-31T06:09:10;18.50;99.90
36856;DHT22;22788;51.434;6.786;2023-07-31T06:11:35;18.50;99.90
36856;DHT22;22788;51.434;6.786;2023-07-31T06:14:01;18.50;99.90
36856;DHT22;22788;51.434;6.786;2023-07-31T06:16:28;18.50;99.90
36856;DHT22;22788;51.434;6.786;2023-07-31T06:18:54;18.50;99.90
36856;DHT22;22788;51.434;6.786;2023-07-31T06:21:19;18.50;99.90
36856;DHT22;22788;51.434;6.786;2023-07-31T06:23:45;18.50;99.90
36856;DHT22;22788;51.434;6.786;2023-07-31T06:26:10;18.50;99.90
36856;DHT22;22788;51.434;6.786;2023-07-31T06:28:36;18.50;99.90
36856;DHT22;22788;51.434;6.786;2023-07-31T06:31:02;18.50;99.90
36856;DHT22;22788;51.434;6.786;2023-07-31T06:33:28;18.50;99.90
36856;DHT22;22788;51.434;6.786;2023-07-31T06:35:54;18.50;99.90
36856;DHT22;22788;51.434;6.786;2023-07-31T06:38:23;18.50;99.90
36856;DHT22;22788;51.434;6.786;2023-07-31T06:40:49;18.40;99.90
36856;DHT22;22788;51.434;6.786;2023-07-31T06:43:15;18.50;99.90
36856;DHT22;22788;51.434;6.786;2023-07-31T06:45:40;18.50;99.90
36856;DHT22;22788;51.434;6.786;2023-07-31T06:48:06;18.50;99.90
36856;DHT22;22788;51.434;6.786;2023-07-31T06:50:33;18.50;99.90
36856;DHT22;22788;51.434;6.786;2023-07-31T06:52:59;18.50;99.90
36856;DHT22;22788;51.434;6.786;2023-07-31T06:55:25;18.50;99.90
36856;DHT22;22788;51.434;6.786;2023-07-31T06:57:53;18.40;99.90
36856;DHT22;22788;51.434;6.786;2023-07-31T07:00:20;18.40;99.90
36856;DHT22;22788;51.434;6.786;2023-07-31T07:02:46;18.40;99.90
36856;DHT22;22788;51.434;6.786;2023-07-31T07:05:11;18.40;99.90
36856;DHT22;22788;51.434;6.786;2023-07-31T07:07:38;18.40;99.90
36856;DHT22;22788;51.434;6.786;2023-07-31T07:10:05;18.40;99.90
36856;DHT22;22788;51.434;6.786;2023-07-31T07:12:31;18.40;99.90
36856;DHT22;22788;51.434;6.786;2023-07-31T07:14:57;18.40;99.90
36856;DHT22;22788;51.434;6.786;2023-07-31T07:17:23;18.30;99.90
36856;DHT22;22788;51.434;6.786;2023-07-31T07:19:48;18.40;99.90
36856;DHT22;22788;51.434;6.786;2023-07-31T07:22:14;18.40;99.90
36856;DHT22;22788;51.434;6.786;2023-07-31T07:24:42;18.40;99.90
36856;DHT22;22788;51.434;6.786;2023-07-31T07:27:07;18.40;99.90
36856;DHT22;22788;51.434;6.786;2023-07-31T07:29:34;18.50;99.90
36856;DHT22;22788;51.434;6.786;2023-07-31T07:31:59;18.40;99.90
36856;DHT22;22788;51.434;6.786;2023-07-31T07:34:26;18.50;99.90
36856;DHT22;22788;51.434;6.786;2023-07-31T07:36:51;18.40;99.90
36856;DHT22;22788;51.434;6.786;2023-07-31T07:39:17;18.40;99.90
36856;DHT22;22788;51.434;6.786;2023-07-31T07:41:44;18.40;99.90
36856;DHT22;22788;51.434;6.786;2023-07-31T07:44:10;18.40;99.90
36856;DHT22;22788;51.434;6.786;2023-07-31T07:46:35;18.40;99.90
36856;DHT22;22788;51.434;6.786;2023-07-31T07:49:01;18.50;99.90
36856;DHT22;22788;51.434;6.786;2023-07-31T07:51:26;18.40;99.90
36856;DHT22;22788;51.434;6.786;2023-07-31T07:53:52;18.40;99.90
36856;DHT22;22788;51.434;6.786;2023-07-31T07:56:18;18.40;99.90
36856;DHT22;22788;51.434;6.786;2023-07-31T07:58:45;18.40;99.90
36856;DHT22;22788;51.434;6.786;2023-07-31T08:01:13;18.40;99.90
36856;DHT22;22788;51.434;6.786;2023-07-31T08:03:39;18.30;99.90
36856;DHT22;22788;51.434;6.786;2023-07-31T08:06:04;18.40;99.90
36856;DHT22;22788;51.434;6.786;2023-07-31T08:08:30;18.40;99.90
36856;DHT22;22788;51.434;6.786;2023-07-31T08:10:56;18.30;99.90
36856;DHT22;22788;51.434;6.786;2023-07-31T08:13:21;18.40;99.90
36856;DHT22;22788;51.434;6.786;2023-07-31T08:15:48;18.30;99.90
36856;DHT22;22788;51.434;6.786;2023-07-31T08:18:14;18.40;99.90
36856;DHT22;22788;51.434;6.786;2023-07-31T08:20:39;18.40;99.90
36856;DHT22;22788;51.434;6.786;2023-07-31T08:23:05;18.30;99.90
36856;DHT22;22788;51.434;6.786;2023-07-31T08:25:31;18.30;99.90
36856;DHT22;22788;51.434;6.786;2023-07-31T08:27:59;18.30;99.90
36856;DHT22;22788;51.434;6.786;2023-07-31T08:30:25;18.30;99.90
36856;DHT22;22788;51.434;6.786;2023-07-31T08:32:52;18.30;99.90
36856;DHT22;22788;51.434;6.786;2023-07-31T08:35:18;18.30;99.90
36856;DHT22;22788;51.434;6.786;2023-07-31T08:37:43;18.30;99.90
36856;DHT22;22788;51.434;6.786;2023-07-31T08:40:10;18.30;99.90
36856;DHT22;22788;51.434;6.786;2023-07-31T08:42:43;18.30;99.90
36856;DHT22;22788;51.434;6.786;2023-07-31T08:45:09;18.30;99.90
36856;DHT22;22788;51.434;6.786;2023-07-31T08:47:36;18.30;99.90
36856;DHT22;22788;51.434;6.786;2023-07-31T08:50:05;18.40;99.90
36856;DHT22;22788;51.434;6.786;2023-07-31T08:52:31;18.40;99.90
36856;DHT22;22788;51.434;6.786;2023-07-31T08:54:56;18.40;99.90
36856;DHT22;22788;51.434;6.786;2023-07-31T08:57:22;18.40;99.90
36856;DHT22;22788;51.434;6.786;2023-07-31T08:59:49;18.30;99.90
36856;DHT22;22788;51.434;6.786;2023-07-31T09:02:15;18.30;99.90
36856;DHT22;22788;51.434;6.786;2023-07-31T09:04:41;18.30;99.90
36856;DHT22;22788;51.434;6.786;2023-07-31T09:07:08;18.30;99.90
36856;DHT22;22788;51.434;6.786;2023-07-31T09:09:35;18.30;99.90
36856;DHT22;22788;51.434;6.786;2023-07-31T09:12:00;18.30;99.90
36856;DHT22;22788;51.434;6.786;2023-07-31T09:14:26;18.30;99.90
36856;DHT22;22788;51.434;6.786;2023-07-31T09:16:53;18.30;99.90
36856;DHT22;22788;51.434;6.786;2023-07-31T09:19:25;18.30;99.90
36856;DHT22;22788;51.434;6.786;2023-07-31T09:21:51;18.30;99.90
36856;DHT22;22788;51.434;6.786;2023-07-31T09:24:25;18.30;99.90
36856;DHT22;22788;51.434;6.786;2023-07-31T09:26:53;18.30;99.90
36856;DHT22;22788;51.434;6.786;2023-07-31T09:29:19;18.30;99.90
36856;DHT22;22788;51.434;6.786;2023-07-31T09:31:45;18.40;99.90
36856;DHT22;22788;51.434;6.786;2023-07-31T09:34:11;18.40;99.90
36856;DHT22;22788;51.434;6.786;2023-07-31T09:36:40;18.40;99.90
36856;DHT22;22788;51.434;6.786;2023-07-31T09:39:09;18.40;99.90
36856;DHT22;22788;51.434;6.786;2023-07-31T09:41:37;18.40;99.90
36856;DHT22;22788;51.434;6.786;2023-07-31T09:44:03;18.40;99.90
36856;DHT22;22788;51.434;6.786;2023-07-31T09:46:30;18.40;99.90
36856;DHT22;22788;51.434;6.786;2023-07-31T09:49:04;18.40;99.90
36856;DHT22;22788;51.434;6.786;2023-07-31T09:51:30;18.40;99.90
36856;DHT22;22788;51.434;6.786;2023-07-31T09:53:55;18.40;99.90
36856;DHT22;22788;51.434;6.786;2023-07-31T09:56:21;18.40;99.90
36856;DHT22;22788;51.434;6.786;2023-07-31T09:58:50;18.40;99.90
36856;DHT22;22788;51.434;6.786;2023-07-31T10:01:16;18.50;99.90
36856;DHT22;22788;51.434;6.786;2023-07-31T10:03:45;18.40;99.90
36856;DHT22;22788;51.434;6.786;2023-07-31T10:06:11;18.50;99.90
36856;DHT22;22788;51.434;6.786;2023-07-31T10:08:38;18.40;99.90
36856;DHT22;22788;51.434;6.786;2023-07-31T10:11:04;18.40;99.90
36856;DHT22;22788;51.434;6.786;2023-07-31T10:13:32;18.40;99.90
36856;DHT22;22788;51.434;6.786;2023-07-31T10:16:00;18.40;99.90
36856;DHT22;22788;51.434;6.786;2023-07-31T10:18:26;18.40;99.90
36856;DHT22;22788;51.434;6.786;2023-07-31T10:20:53;18.40;99.90
36856;DHT22;22788;51.434;6.786;2023-07-31T10:23:20;18.40;99.90
36856;DHT22;22788;51.434;6.786;2023-07-31T10:25:46;18.40;99.90
36856;DHT22;22788;51.434;6.786;2023-07-31T10:28:12;18.40;99.90
36856;DHT22;22788;51.434;6.786;2023-07-31T10:30:39;18.50;99.90
36856;DHT22;22788;51.434;6.786;2023-07-31T10:33:07;18.50;99.90
36856;DHT22;22788;51.434;6.786;2023-07-31T10:35:33;18.50;99.90
36856;DHT22;22788;51.434;6.786;2023-07-31T10:38:09;18.40;99.90
36856;DHT22;22788;51.434;6.786;2023-07-31T10:40:35;18.50;99.90
36856;DHT22;22788;51.434;6.786;2023-07-31T10:43:00;18.50;99.90
36856;DHT22;22788;51.434;6.786;2023-07-31T10:45:33;18.40;99.90
36856;DHT22;22788;51.434;6.786;2023-07-31T10:47:59;18.50;99.90
36856;DHT22;22788;51.434;6.786;2023-07-31T10:50:27;18.50;99.90
36856;DHT22;22788;51.434;6.786;2023-07-31T10:52:54;18.50;99.90
36856;DHT22;22788;51.434;6.786;2023-07-31T10:55:28;18.50;99.90
36856;DHT22;22788;51.434;6.786;2023-07-31T10:57:56;18.50;99.90
36856;DHT22;22788;51.434;6.786;2023-07-31T11:00:24;18.50;99.90
36856;DHT22;22788;51.434;6.786;2023-07-31T11:03:03;18.50;99.90
36856;DHT22;22788;51.434;6.786;2023-07-31T11:05:44;18.60;99.90
36856;DHT22;22788;51.434;6.786;2023-07-31T11:08:14;18.40;99.90
36856;DHT22;22788;51.434;6.786;2023-07-31T11:10:40;18.50;99.90
36856;DHT22;22788;51.434;6.786;2023-07-31T11:13:05;18.50;99.90
36856;DHT22;22788;51.434;6.786;2023-07-31T11:15:31;18.60;99.90
36856;DHT22;22788;51.434;6.786;2023-07-31T11:17:57;18.50;99.90
36856;DHT22;22788;51.434;6.786;2023-07-31T11:20:22;18.50;99.90
36856;DHT22;22788;51.434;6.786;2023-07-31T11:22:50;18.60;99.90
36856;DHT22;22788;51.434;6.786;2023-07-31T11:25:16;18.60;99.90
36856;DHT22;22788;51.434;6.786;2023-07-31T11:27:43;18.60;99.90
36856;DHT22;22788;51.434;6.786;2023-07-31T11:30:09;18.60;99.90
36856;DHT22;22788;51.434;6.786;2023-07-31T11:32:36;18.60;99.90
36856;DHT22;22788;51.434;6.786;2023-07-31T11:35:02;18.60;99.90
36856;DHT22;22788;51.434;6.786;2023-07-31T11:37:39;18.60;99.90
36856;DHT22;22788;51.434;6.786;2023-07-31T11:40:07;18.70;99.90
36856;DHT22;22788;51.434;6.786;2023-07-31T11:42:34;18.60;99.90
36856;DHT22;22788;51.434;6.786;2023-07-31T11:45:02;18.60;99.90
36856;DHT22;22788;51.434;6.786;2023-07-31T11:47:28;18.60;99.90
36856;DHT22;22788;51.434;6.786;2023-07-31T11:49:54;18.60;99.90
36856;DHT22;22788;51.434;6.786;2023-07-31T11:52:20;18.60;99.90
36856;DHT22;22788;51.434;6.786;2023-07-31T11:54:46;18.60;99.90
36856;DHT22;22788;51.434;6.786;2023-07-31T11:57:13;18.60;99.90
36856;DHT22;22788;51.434;6.786;2023-07-31T11:59:39;18.60;99.90
36856;DHT22;22788;51.434;6.786;2023-07-31T12:02:05;18.60;99.90
36856;DHT22;22788;51.434;6.786;2023-07-31T12:04:31;18.60;99.90
36856;DHT22;22788;51.434;6.786;2023-07-31T12:07:00;18.60;99.90
36856;DHT22;22788;51.434;6.786;2023-07-31T12:09:25;18.60;99.90
36856;DHT22;22788;51.434;6.786;2023-07-31T12:11:51;18.50;99.90
36856;DHT22;22788;51.434;6.786;2023-07-31T12:14:21;18.50;99.90
36856;DHT22;22788;51.434;6.786;2023-07-31T12:16:47;18.60;99.90
36856;DHT22;22788;51.434;6.786;2023-07-31T12:19:13;18.60;99.90
36856;DHT22;22788;51.434;6.786;2023-07-31T12:21:38;18.60;99.90
36856;DHT22;22788;51.434;6.786;2023-07-31T12:24:04;18.50;99.90
36856;DHT22;22788;51.434;6.786;2023-07-31T12:26:34;18.50;99.90
36856;DHT22;22788;51.434;6.786;2023-07-31T12:28:59;18.60;99.90
36856;DHT22;22788;51.434;6.786;2023-07-31T12:31:28;18.60;99.90
36856;DHT22;22788;51.434;6.786;2023-07-31T12:33:56;18.60;99.90
36856;DHT22;22788;51.434;6.786;2023-07-31T12:36:23;18.60;99.90
36856;DHT22;22788;51.434;6.786;2023-07-31T12:38:50;18.60;99.90
36856;DHT22;22788;51.434;6.786;2023-07-31T12:41:15;18.70;99.90
36856;DHT22;22788;51.434;6.786;2023-07-31T12:43:42;18.70;99.90
36856;DHT22;22788;51.434;6.786;2023-07-31T12:46:08;18.70;99.90
36856;DHT22;22788;51.434;6.786;2023-07-31T12:48:36;18.70;99.90
36856;DHT22;22788;51.434;6.786;2023-07-31T12:51:02;18.70;99.90
36856;DHT22;22788;51.434;6.786;2023-07-31T12:53:27;18.70;99.90
36856;DHT22;22788;51.434;6.786;2023-07-31T12:55:53;18.70;99.90
36856;DHT22;22788;51.434;6.786;2023-07-31T12:58:19;18.70;99.90
36856;DHT22;22788;51.434;6.786;2023-07-31T13:00:45;18.70;99.90
36856;DHT22;22788;51.434;6.786;2023-07-31T13:03:10;18.70;99.90
36856;DHT22;22788;51.434;6.786;2023-07-31T13:05:37;18.70;99.90
36856;DHT22;22788;51.434;6.786;2023-07-31T13:08:03;18.70;99.90
36856;DHT22;22788;51.434;6.786;2023-07-31T13:10:29;18.70;99.90
36856;DHT22;22788;51.434;6.786;2023-07-31T13:12:54;18.70;99.90
36856;DHT22;22788;51.434;6.786;2023-07-31T13:15:20;18.70;99.90
36856;DHT22;22788;51.434;6.786;2023-07-31T13:17:46;18.70;99.90
36856;DHT22;22788;51.434;6.786;2023-07-31T13:20:12;18.70;99.90
36856;DHT22;22788;51.434;6.786;2023-07-31T13:22:39;18.70;99.90
36856;DHT22;22788;51.434;6.786;2023-07-31T13:25:05;18.80;99.90
36856;DHT22;22788;51.434;6.786;2023-07-31T13:27:31;18.70;99.90
36856;DHT22;22788;51.434;6.786;2023-07-31T13:29:57;18.80;99.90
36856;DHT22;22788;51.434;6.786;2023-07-31T13:32:23;18.80;99.90
36856;DHT22;22788;51.434;6.786;2023-07-31T13:34:49;18.80;99.90
36856;DHT22;22788;51.434;6.786;2023-07-31T13:37:14;18.80;99.90
36856;DHT22;22788;51.434;6.786;2023-07-31T13:39:42;18.80;99.90
36856;DHT22;22788;51.434;6.786;2023-07-31T13:42:08;18.80;99.90
36856;DHT22;22788;51.434;6.786;2023-07-31T13:44:34;18.80;99.90
36856;DHT22;22788;51.434;6.786;2023-07-31T13:47:00;18.80;99.90
36856;DHT22;22788;51.434;6.786;2023-07-31T13:49:26;18.80;99.90
36856;DHT22;22788;51.434;6.786;2023-07-31T13:51:51;18.80;99.90
36856;DHT22;22788;51.434;6.786;2023-07-31T13:54:17;18.80;99.90
36856;DHT22;22788;51.434;6.786;2023-07-31T13:56:44;18.80;99.90
36856;DHT22;22788;51.434;6.786;2023-07-31T13:59:10;18.80;99.90
36856;DHT22;22788;51.434;6.786;2023-07-31T14:01:36;18.90;99.90
36856;DHT22;22788;51.434;6.786;2023-07-31T14:04:01;18.90;99.90
36856;DHT22;22788;51.434;6.786;2023-07-31T14:06:27;18.90;99.90
36856;DHT22;22788;51.434;6.786;2023-07-31T14:08:52;18.90;99.90
36856;DHT22;22788;51.434;6.786;2023-07-31T14:11:18;19.00;99.90
36856;DHT22;22788;51.434;6.786;2023-07-31T14:13:45;18.90;99.90
36856;DHT22;22788;51.434;6.786;2023-07-31T14:16:11;18.90;99.90
36856;DHT22;22788;51.434;6.786;2023-07-31T14:18:36;18.90;99.90
36856;DHT22;22788;51.434;6.786;2023-07-31T14:21:02;19.00;99.90
36856;DHT22;22788;51.434;6.786;2023-07-31T14:23:28;18.90;99.90
36856;DHT22;22788;51.434;6.786;2023-07-31T14:25:53;18.90;99.90
36856;DHT22;22788;51.434;6.786;2023-07-31T14:28:19;18.90;99.90
36856;DHT22;22788;51.434;6.786;2023-07-31T14:30:46;18.90;99.90
36856;DHT22;22788;51.434;6.786;2023-07-31T14:35:38;20.70;99.90
36856;DHT22;22788;51.434;6.786;2023-07-31T14:38:03;19.00;99.90
36856;DHT22;22788;51.434;6.786;2023-07-31T14:40:29;18.90;99.90
36856;DHT22;22788;51.434;6.786;2023-07-31T14:42:55;18.90;99.90
36856;DHT22;22788;51.434;6.786;2023-07-31T14:45:20;18.90;99.90
36856;DHT22;22788;51.434;6.786;2023-07-31T14:47:47;18.90;99.90
36856;DHT22;22788;51.434;6.786;2023-07-31T14:50:13;18.90;99.90
36856;DHT22;22788;51.434;6.786;2023-07-31T14:52:39;18.90;99.90
36856;DHT22;22788;51.434;6.786;2023-07-31T14:55:05;19.00;99.90
36856;DHT22;22788;51.434;6.786;2023-07-31T14:57:31;18.90;99.90
36856;DHT22;22788;51.434;6.786;2023-07-31T14:59:56;18.90;99.90
36856;DHT22;22788;51.434;6.786;2023-07-31T15:02:22;18.90;99.90
36856;DHT22;22788;51.434;6.786;2023-07-31T15:04:49;18.90;99.90
36856;DHT22;22788;51.434;6.786;2023-07-31T15:07:15;18.90;99.90
36856;DHT22;22788;51.434;6.786;2023-07-31T15:09:40;18.90;99.90
36856;DHT22;22788;51.434;6.786;2023-07-31T15:12:07;18.90;99.90
36856;DHT22;22788;51.434;6.786;2023-07-31T15:14:33;18.90;99.90
36856;DHT22;22788;51.434;6.786;2023-07-31T15:16:58;18.90;99.90
36856;DHT22;22788;51.434;6.786;2023-07-31T15:19:24;18.90;99.90
36856;DHT22;22788;51.434;6.786;2023-07-31T15:21:54;18.90;99.90
36856;DHT22;22788;51.434;6.786;2023-07-31T15:24:20;18.90;99.90
36856;DHT22;22788;51.434;6.786;2023-07-31T15:26:45;18.90;99.90
36856;DHT22;22788;51.434;6.786;2023-07-31T15:29:11;18.80;99.90